createdAt,value
2024-02-08T00:02:20.395Z,85.93
2024-02-08T00:04:48.722Z,84.53
2024-02-08T00:07:16.745Z,96.20
2024-02-08T00:09:44.698Z,85.20
2024-02-08T00:12:12.960Z,88.23
2024-02-08T00:14:42.250Z,101.43
2024-02-08T00:17:10.211Z,94.40
2024-02-08T00:19:38.242Z,86.03
2024-02-08T00:22:06.150Z,87.27
2024-02-08T00:24:38.151Z,81.30
2024-02-08T00:27:06.428Z,80.90
2024-02-08T00:29:34.389Z,82.93
2024-02-08T00:32:03.651Z,84.17
2024-02-08T00:34:31.671Z,81.70
2024-02-08T00:36:59.614Z,86.60
2024-02-08T00:39:27.510Z,78.70
2024-02-08T00:41:59.079Z,85.17
2024-02-08T00:44:28.870Z,81.60
2024-02-08T00:46:57.166Z,86.40
2024-02-08T00:49:26.413Z,94.40
2024-02-08T00:51:55.108Z,82.50
2024-02-08T00:54:25.313Z,76.43
2024-02-08T00:56:54.512Z,86.80
2024-02-08T00:59:23.537Z,75.10
2024-02-08T01:01:52.493Z,79.00
2024-02-08T01:04:22.458Z,74.50
2024-02-08T01:06:52.053Z,77.17
2024-02-08T01:09:20.153Z,75.30
2024-02-08T01:11:47.178Z,75.57
2024-02-08T01:14:15.174Z,74.27
2024-02-08T01:16:47.666Z,72.37
2024-02-08T01:19:15.687Z,72.70
2024-02-08T01:21:45.221Z,90.63
2024-02-08T01:24:19.390Z,74.03
2024-02-08T01:26:47.498Z,72.27
2024-02-08T01:29:15.728Z,74.90
2024-02-08T01:31:43.825Z,72.40
2024-02-08T01:34:12.396Z,74.60
2024-02-08T01:36:41.260Z,69.33
2024-02-08T01:39:14.032Z,72.47
2024-02-08T01:41:44.144Z,74.20
2024-02-08T01:44:14.519Z,73.77
2024-02-08T01:46:42.892Z,70.67
2024-02-08T01:49:14.390Z,76.53
2024-02-08T01:51:42.690Z,74.47
2024-02-08T01:54:13.557Z,71.10
2024-02-08T01:56:43.751Z,69.80
2024-02-08T01:59:12.765Z,68.97
2024-02-08T02:01:47.195Z,73.63
2024-02-08T02:04:17.109Z,72.03
2024-02-08T02:06:45.589Z,68.77
2024-02-08T02:09:24.809Z,67.63
2024-02-08T02:12:33.381Z,69.97
2024-02-08T02:15:05.252Z,66.80
2024-02-08T02:17:33.199Z,68.40
2024-02-08T02:20:08.231Z,67.87
2024-02-08T02:22:43.543Z,66.20
2024-02-08T02:25:14.727Z,69.73
2024-02-08T02:27:43.464Z,68.00
2024-02-08T02:30:17.472Z,67.20
2024-02-08T02:32:48.043Z,65.50
2024-02-08T02:35:17.837Z,66.00
2024-02-08T02:37:50.859Z,64.77
2024-02-08T02:40:24.331Z,65.77
2024-02-08T02:42:53.285Z,64.73
2024-02-08T02:45:24.832Z,64.00
2024-02-08T02:47:54.931Z,62.90
2024-02-08T02:50:23.176Z,62.83
2024-02-08T02:52:53.442Z,64.60
2024-02-08T02:55:24.025Z,66.13
2024-02-08T02:57:52.158Z,64.27
2024-02-08T03:00:26.166Z,64.67
2024-02-08T03:02:58.631Z,62.70
2024-02-08T03:05:27.085Z,64.40
2024-02-08T03:07:56.441Z,66.57
2024-02-08T03:10:24.727Z,66.47
2024-02-08T03:12:53.712Z,70.90
2024-02-08T03:15:23.454Z,64.77
2024-02-08T03:17:51.458Z,66.33
2024-02-08T03:20:25.125Z,64.67
2024-02-08T03:22:53.662Z,65.43
2024-02-08T03:25:23.064Z,63.53
2024-02-08T03:27:52.880Z,63.13
2024-02-08T03:30:24.109Z,63.33
2024-02-08T03:32:54.224Z,60.87
2024-02-08T03:35:26.553Z,59.27
2024-02-08T03:37:56.367Z,58.57
2024-02-08T03:40:30.173Z,57.77
2024-02-08T03:42:57.996Z,58.00
2024-02-08T03:45:28.437Z,62.67
2024-02-08T03:47:59.504Z,72.60
2024-02-08T03:50:28.183Z,75.33
2024-02-08T03:52:56.047Z,77.87
2024-02-08T03:55:27.815Z,82.50
2024-02-08T03:57:57.774Z,84.40
2024-02-08T04:00:30.025Z,86.63
2024-02-08T04:02:59.554Z,87.03
2024-02-08T04:05:38.324Z,89.50
2024-02-08T04:08:23.571Z,90.80
2024-02-08T04:11:11.064Z,92.23
2024-02-08T04:13:56.359Z,98.33
2024-02-08T04:16:41.593Z,102.00
2024-02-08T04:19:26.954Z,111.20
2024-02-08T04:22:12.337Z,107.53
2024-02-08T04:24:57.780Z,110.13
2024-02-08T04:27:44.413Z,100.97
2024-02-08T04:30:30.643Z,107.17
2024-02-08T04:33:30.544Z,112.83
2024-02-08T04:36:15.940Z,112.13
2024-02-08T04:39:01.622Z,113.80
2024-02-08T04:41:47.225Z,117.23
2024-02-08T04:44:34.680Z,133.53
2024-02-08T04:47:20.076Z,135.33
2024-02-08T04:50:05.931Z,138.37
2024-02-08T04:52:52.282Z,161.00
2024-02-08T04:55:20.171Z,176.70
2024-02-08T04:57:48.810Z,179.87
2024-02-08T05:00:18.766Z,163.63
2024-02-08T05:02:46.701Z,152.50
2024-02-08T05:05:14.664Z,154.30
2024-02-08T05:07:43.151Z,146.60
2024-02-08T05:10:11.680Z,146.87
2024-02-08T05:12:39.539Z,186.03
2024-02-08T05:15:14.137Z,952.27
2024-02-08T05:17:43.568Z,449.67
2024-02-08T05:20:13.513Z,389.43
2024-02-08T05:22:41.974Z,233.67
2024-02-08T05:25:11.468Z,307.17
2024-02-08T05:27:39.578Z,310.73
2024-02-08T05:30:08.500Z,239.43
2024-02-08T05:32:37.549Z,202.43
2024-02-08T05:35:07.952Z,212.10
2024-02-08T05:37:35.881Z,464.43
2024-02-08T05:40:03.978Z,271.37
2024-02-08T05:42:35.083Z,264.87
2024-02-08T05:45:20.002Z,303.27
2024-02-08T05:47:50.627Z,470.47
2024-02-08T05:50:23.824Z,493.73
2024-02-08T05:52:57.842Z,323.20
2024-02-08T05:55:26.799Z,297.57
2024-02-08T05:57:59.621Z,351.60
2024-02-08T06:00:37.160Z,374.10
2024-02-08T06:03:06.936Z,749.10
2024-02-08T06:05:36.151Z,683.10
2024-02-08T06:08:05.358Z,1042.30
2024-02-08T06:10:46.494Z,445.67
2024-02-08T06:13:17.583Z,824.90
2024-02-08T06:15:48.562Z,2266.67
2024-02-08T06:18:21.475Z,2266.67
2024-02-08T06:21:00.837Z,2266.67
2024-02-08T06:23:29.084Z,2266.67
2024-02-08T06:26:14.495Z,2266.67
2024-02-08T06:28:48.137Z,2266.67
2024-02-08T06:31:16.572Z,2266.67
2024-02-08T06:34:06.089Z,2266.67
2024-02-08T06:36:35.737Z,2266.67
2024-02-08T06:39:21.490Z,2266.67
2024-02-08T06:42:08.391Z,2266.67
2024-02-08T06:44:54.320Z,2266.67
2024-02-08T06:47:52.049Z,2266.67
2024-02-08T06:50:49.257Z,143.73
2024-02-08T06:53:38.737Z,125.93
2024-02-08T06:56:21.841Z,161.90
2024-02-08T06:59:07.695Z,131.90
2024-02-08T07:01:53.746Z,128.40
2024-02-08T07:04:35.721Z,156.77
2024-02-08T07:07:21.498Z,143.23
2024-02-08T07:10:08.472Z,148.27
2024-02-08T07:12:53.947Z,136.60
2024-02-08T07:15:39.261Z,161.17
2024-02-08T07:18:24.862Z,124.57
2024-02-08T07:21:10.614Z,144.57
2024-02-08T07:23:55.635Z,127.37
2024-02-08T07:26:42.256Z,165.27
2024-02-08T07:29:27.723Z,139.97
2024-02-08T07:32:13.245Z,189.67
2024-02-08T07:34:59.996Z,152.57
2024-02-08T07:37:29.049Z,172.17
2024-02-08T07:40:02.560Z,131.23
2024-02-08T07:42:33.890Z,124.63
2024-02-08T07:45:05.845Z,117.90
2024-02-08T07:47:34.653Z,118.77
2024-02-08T07:50:06.699Z,118.77
2024-02-08T07:52:39.650Z,123.80
2024-02-08T07:55:21.597Z,127.57
2024-02-08T07:57:58.881Z,117.73
2024-02-08T08:00:43.372Z,143.53
2024-02-08T08:03:17.541Z,121.33
2024-02-08T08:05:52.300Z,134.93
2024-02-08T08:08:27.736Z,127.37
2024-02-08T08:10:58.303Z,140.33
2024-02-08T08:13:49.396Z,170.47
2024-02-08T08:16:35.252Z,155.00
2024-02-08T08:19:10.428Z,167.93
2024-02-08T08:21:58.882Z,157.10
2024-02-08T08:24:27.819Z,178.83
2024-02-08T08:27:07.965Z,221.23
2024-02-08T08:29:44.910Z,276.80
2024-02-08T08:32:30.640Z,448.57
2024-02-08T08:35:38.061Z,441.90
2024-02-08T08:38:30.294Z,900.87
2024-02-08T08:41:08.671Z,993.87
2024-02-08T08:43:38.753Z,998.23
2024-02-08T08:46:11.997Z,429.80
2024-02-08T08:48:41.693Z,399.20
2024-02-08T08:51:15.546Z,994.90
2024-02-08T08:53:57.808Z,832.07
2024-02-08T08:56:29.582Z,198.03
2024-02-08T08:59:00.204Z,371.00
2024-02-08T09:01:31.075Z,480.60
2024-02-08T09:04:11.320Z,322.60
2024-02-08T09:06:43.090Z,565.80
2024-02-08T09:09:25.187Z,173.30
2024-02-08T09:11:59.010Z,440.97
2024-02-08T09:14:31.443Z,366.80
2024-02-08T09:17:23.470Z,437.53
2024-02-08T09:19:48.935Z,396.40
2024-02-08T09:22:19.124Z,452.17
2024-02-08T09:24:47.633Z,495.70
2024-02-08T09:27:18.232Z,710.83
2024-02-08T09:29:57.395Z,720.60
2024-02-08T09:32:40.921Z,576.40
2024-02-08T09:35:14.738Z,587.10
2024-02-08T09:37:46.798Z,438.23
2024-02-08T09:40:42.653Z,522.77
2024-02-08T09:43:19.922Z,351.03
2024-02-08T09:46:02.800Z,189.33
2024-02-08T09:48:44.658Z,191.47
2024-02-08T09:51:24.305Z,121.43
2024-02-08T09:54:15.878Z,123.57
2024-02-08T09:56:51.308Z,131.20
2024-02-08T09:59:40.980Z,156.13
2024-02-08T10:02:25.294Z,143.37
2024-02-08T10:04:58.692Z,77.57
2024-02-08T10:07:35.574Z,66.07
2024-02-08T10:10:16.417Z,96.17
2024-02-08T10:12:55.305Z,90.43
2024-02-08T10:15:27.646Z,104.17
2024-02-08T10:18:10.243Z,107.47
2024-02-08T10:20:47.034Z,111.60
2024-02-08T10:23:34.523Z,104.97
2024-02-08T10:26:20.111Z,100.50
2024-02-08T10:28:52.247Z,105.63
2024-02-08T10:31:23.870Z,111.83
2024-02-08T10:33:58.850Z,103.17
2024-02-08T10:36:36.610Z,106.13
2024-02-08T10:39:09.013Z,96.27
2024-02-08T10:41:40.159Z,96.30
2024-02-08T10:44:19.322Z,103.13
2024-02-08T10:46:48.332Z,90.50
2024-02-08T10:49:16.834Z,81.20
2024-02-08T10:51:47.775Z,90.70
2024-02-08T10:54:24.280Z,87.47
2024-02-08T10:57:08.489Z,90.10
2024-02-08T10:59:49.062Z,102.80
2024-02-08T11:02:33.191Z,119.23
2024-02-08T11:05:22.226Z,112.17
2024-02-08T11:07:54.763Z,112.80
2024-02-08T11:10:25.498Z,116.83
2024-02-08T11:13:02.212Z,117.63
2024-02-08T11:15:39.889Z,124.17
2024-02-08T11:18:29.655Z,122.60
2024-02-08T11:21:04.988Z,110.53
2024-02-08T11:23:47.230Z,127.53
2024-02-08T11:26:19.523Z,130.27
2024-02-08T11:28:49.805Z,134.67
2024-02-08T11:31:20.030Z,119.43
2024-02-08T11:33:50.782Z,127.10
2024-02-08T11:36:23.196Z,129.73
2024-02-08T11:38:59.285Z,134.93
2024-02-08T11:41:27.787Z,115.80
2024-02-08T11:44:04.500Z,121.33
2024-02-08T11:46:39.234Z,115.77
2024-02-08T11:49:16.196Z,115.10
2024-02-08T11:51:46.957Z,77.30
2024-02-08T11:54:28.949Z,87.80
2024-02-08T11:56:58.850Z,76.40
2024-02-08T11:59:28.440Z,78.63
2024-02-08T12:01:59.907Z,56.77
2024-02-08T12:04:29.899Z,62.13
2024-02-08T12:07:04.170Z,65.43
2024-02-08T12:09:33.828Z,73.80
2024-02-08T12:12:04.172Z,81.80
2024-02-08T12:14:32.756Z,84.17
2024-02-08T12:17:00.679Z,83.40
2024-02-08T12:19:30.259Z,74.63
2024-02-08T12:21:59.249Z,72.23
2024-02-08T12:24:27.829Z,69.83
2024-02-08T12:27:06.471Z,72.60
2024-02-08T12:29:38.206Z,66.07
2024-02-08T12:32:17.573Z,66.43
2024-02-08T12:34:49.157Z,64.90
2024-02-08T12:37:20.619Z,59.40
2024-02-08T12:39:50.867Z,67.13
2024-02-08T12:42:24.713Z,73.03
2024-02-08T12:44:53.267Z,68.40
2024-02-08T12:47:23.945Z,65.63
2024-02-08T12:49:54.793Z,79.03
2024-02-08T12:52:23.947Z,90.83
2024-02-08T12:54:55.622Z,85.07
2024-02-08T12:57:26.915Z,112.27
2024-02-08T13:00:03.061Z,117.27
2024-02-08T13:02:34.545Z,118.30
2024-02-08T13:05:04.596Z,112.20
2024-02-08T13:07:36.660Z,115.63
2024-02-08T13:10:15.693Z,102.20
2024-02-08T13:12:46.405Z,100.20
2024-02-08T13:15:23.435Z,113.37
2024-02-08T13:17:53.217Z,110.10
2024-02-08T13:20:25.028Z,113.70
2024-02-08T13:22:55.994Z,122.10
2024-02-08T13:25:29.396Z,124.33
2024-02-08T13:28:00.181Z,110.13
2024-02-08T13:30:30.863Z,121.53
2024-02-08T13:32:59.990Z,119.73
2024-02-08T13:35:29.917Z,127.70
2024-02-08T13:37:59.925Z,124.83
2024-02-08T13:40:28.062Z,119.70
2024-02-08T13:42:58.516Z,104.60
2024-02-08T13:45:31.167Z,119.67
2024-02-08T13:48:03.056Z,121.87
2024-02-08T13:50:33.181Z,125.53
2024-02-08T13:53:03.486Z,134.00
2024-02-08T13:55:45.966Z,137.80
2024-02-08T13:58:21.909Z,138.17
2024-02-08T14:00:55.822Z,141.33
2024-02-08T14:03:27.821Z,144.40
2024-02-08T14:05:56.961Z,146.53
2024-02-08T14:08:29.110Z,152.13
2024-02-08T14:10:59.166Z,137.47
2024-02-08T14:13:36.683Z,157.57
2024-02-08T14:16:16.359Z,145.23
2024-02-08T14:18:51.695Z,139.70
2024-02-08T14:21:21.744Z,139.00
2024-02-08T14:23:52.494Z,148.23
2024-02-08T14:26:37.952Z,140.63
2024-02-08T14:29:07.106Z,149.40
2024-02-08T14:31:39.396Z,156.10
2024-02-08T14:34:11.067Z,145.17
2024-02-08T14:36:47.892Z,147.17
2024-02-08T14:39:30.410Z,141.33
2024-02-08T14:42:00.559Z,154.83
2024-02-08T14:44:41.406Z,151.43
2024-02-08T14:47:16.624Z,141.93
2024-02-08T14:49:57.748Z,147.20
2024-02-08T14:52:27.838Z,138.13
2024-02-08T14:54:59.963Z,141.13
2024-02-08T14:57:40.451Z,138.10
2024-02-08T15:00:23.112Z,140.30
2024-02-08T15:02:56.922Z,141.30
2024-02-08T15:05:41.644Z,139.50
2024-02-08T15:08:30.900Z,146.67
2024-02-08T15:11:10.738Z,143.40
2024-02-08T15:13:47.500Z,139.77
2024-02-08T15:16:18.490Z,140.73
2024-02-08T15:18:49.774Z,128.83
2024-02-08T15:21:25.178Z,125.10
2024-02-08T15:24:10.976Z,119.60
2024-02-08T15:26:39.749Z,101.57
2024-02-08T15:29:09.081Z,99.73
2024-02-08T15:31:47.336Z,108.50
2024-02-08T15:34:29.305Z,101.87
2024-02-08T15:37:11.289Z,81.27
2024-02-08T15:39:56.938Z,84.27
2024-02-08T15:42:34.411Z,69.30
2024-02-08T15:45:02.724Z,73.37
2024-02-08T15:47:30.880Z,85.90
2024-02-08T15:50:00.493Z,75.20
2024-02-08T15:52:35.191Z,73.27
2024-02-08T15:55:16.380Z,69.47
2024-02-08T15:57:46.749Z,67.40
2024-02-08T16:00:34.913Z,83.70
2024-02-08T16:03:04.016Z,82.60
2024-02-08T16:05:46.022Z,88.57
2024-02-08T16:08:15.288Z,87.60
2024-02-08T16:10:45.890Z,99.63
2024-02-08T16:13:14.967Z,97.73
2024-02-08T16:15:57.456Z,94.93
2024-02-08T16:18:27.044Z,102.77
2024-02-08T16:20:57.282Z,95.77
2024-02-08T16:23:27.625Z,95.90
2024-02-08T16:26:07.376Z,96.43
2024-02-08T16:28:38.892Z,104.80
2024-02-08T16:31:21.805Z,106.93
2024-02-08T16:33:56.150Z,123.80
2024-02-08T16:36:45.575Z,125.00
2024-02-08T16:39:30.473Z,133.70
2024-02-08T16:42:01.435Z,116.07
2024-02-08T16:44:51.552Z,125.70
2024-02-08T16:47:29.264Z,132.50
2024-02-08T16:49:59.985Z,120.63
2024-02-08T16:52:40.447Z,126.73
2024-02-08T16:55:14.831Z,124.03
2024-02-08T16:57:48.312Z,139.33
2024-02-08T17:00:39.715Z,138.50
2024-02-08T17:03:27.859Z,146.37
2024-02-08T17:05:57.938Z,150.37
2024-02-08T17:08:41.414Z,168.47
2024-02-08T17:11:16.909Z,174.80
2024-02-08T17:13:52.441Z,178.67
2024-02-08T17:16:46.890Z,194.10
2024-02-08T17:19:25.812Z,173.57
2024-02-08T17:22:29.889Z,162.70
2024-02-08T17:25:20.386Z,158.13
2024-02-08T17:27:57.437Z,184.03
2024-02-08T17:30:38.220Z,236.50
2024-02-08T17:33:12.808Z,330.77
2024-02-08T17:35:41.476Z,428.27
2024-02-08T17:38:09.457Z,480.90
2024-02-08T17:40:39.380Z,498.63
2024-02-08T17:43:18.438Z,704.93
2024-02-08T17:45:56.139Z,752.93
2024-02-08T17:48:29.801Z,806.57
2024-02-08T17:51:01.039Z,661.23
2024-02-08T17:53:29.431Z,452.37
2024-02-08T17:56:08.065Z,278.40
2024-02-08T17:58:37.018Z,254.33
2024-02-08T18:01:07.896Z,418.83
2024-02-08T18:03:36.403Z,307.33
2024-02-08T18:06:07.248Z,237.27
2024-02-08T18:08:39.877Z,260.47
2024-02-08T18:11:10.564Z,284.60
2024-02-08T18:13:39.814Z,206.47
2024-02-08T18:16:11.430Z,198.63
2024-02-08T18:18:42.786Z,237.77
2024-02-08T18:21:15.006Z,303.90
2024-02-08T18:23:46.808Z,255.83
2024-02-08T18:26:28.609Z,252.73
2024-02-08T18:29:04.134Z,217.97
2024-02-08T18:31:35.983Z,303.40
2024-02-08T18:34:04.292Z,317.97
2024-02-08T18:36:32.520Z,307.03
2024-02-08T18:39:00.540Z,306.47
2024-02-08T18:41:29.972Z,760.83
2024-02-08T18:43:59.120Z,1137.97
2024-02-08T18:46:28.829Z,1666.47
2024-02-08T18:48:57.695Z,2266.67
2024-02-08T18:51:26.307Z,2266.67
2024-02-08T18:53:57.028Z,2266.67
2024-02-08T18:56:26.637Z,2266.67
2024-02-08T18:59:00.983Z,2266.67
2024-02-08T19:01:31.133Z,2266.67
2024-02-08T19:03:59.912Z,2266.67
2024-02-08T19:06:28.463Z,2266.67
2024-02-08T19:08:56.608Z,2266.67
2024-02-08T19:11:24.543Z,2266.67
2024-02-08T19:13:53.310Z,2266.67
2024-02-08T19:16:28.966Z,1770.80
2024-02-08T19:19:02.165Z,2266.67
2024-02-08T19:21:32.552Z,1895.47
2024-02-08T19:24:02.946Z,2266.67
2024-02-08T19:26:33.463Z,2266.67
2024-02-08T19:29:06.072Z,2266.67
2024-02-08T19:31:38.378Z,2266.67
2024-02-08T19:34:09.797Z,2266.67
2024-02-08T19:36:38.912Z,2266.67
2024-02-08T19:39:33.779Z,2266.67
2024-02-08T19:42:02.029Z,2266.67
2024-02-08T19:44:35.898Z,2266.67
2024-02-08T19:47:13.637Z,2266.67
2024-02-08T19:49:43.284Z,2266.67
2024-02-08T19:52:16.772Z,2266.67
2024-02-08T19:54:50.663Z,2266.67
2024-02-08T19:57:22.349Z,2266.67
2024-02-08T19:59:50.979Z,578.87
2024-02-08T20:02:28.548Z,2266.67
2024-02-08T20:05:00.671Z,1045.63
2024-02-08T20:07:29.702Z,2266.67
2024-02-08T20:09:57.865Z,2266.67
2024-02-08T20:12:26.510Z,2266.67
2024-02-08T20:14:54.904Z,2266.67
2024-02-08T20:17:24.635Z,1708.23
2024-02-08T20:19:54.193Z,2266.67
2024-02-08T20:22:22.947Z,1719.20
2024-02-08T20:24:51.106Z,1683.50
2024-02-08T20:27:21.466Z,582.07
2024-02-08T20:29:50.130Z,2266.67
2024-02-08T20:32:21.153Z,2266.67
2024-02-08T20:34:52.297Z,2266.67
2024-02-08T20:37:20.671Z,2266.67
2024-02-08T20:39:53.230Z,2266.67
2024-02-08T20:42:25.089Z,2266.67
2024-02-08T20:44:53.184Z,2266.67
2024-02-08T20:47:25.574Z,491.70
2024-02-08T20:49:57.505Z,2266.67
2024-02-08T20:52:25.724Z,2266.67
2024-02-08T20:54:54.853Z,2266.67
2024-02-08T20:57:24.644Z,2266.67
2024-02-08T20:59:56.121Z,2266.67
2024-02-08T21:02:25.482Z,2266.67
2024-02-08T21:04:55.833Z,2266.67
2024-02-08T21:07:27.002Z,2266.67
2024-02-08T21:09:55.460Z,2266.67
2024-02-08T21:12:23.398Z,1005.90
2024-02-08T21:14:53.982Z,1733.50
2024-02-08T21:17:28.458Z,342.00
2024-02-08T21:19:59.102Z,231.90
2024-02-08T21:22:29.831Z,250.47
2024-02-08T21:24:58.186Z,235.40
2024-02-08T21:27:27.734Z,217.90
2024-02-08T21:29:56.404Z,223.33
2024-02-08T21:32:24.349Z,223.53
2024-02-08T21:34:52.527Z,211.03
2024-02-08T21:37:21.782Z,183.40
2024-02-08T21:39:51.237Z,163.90
2024-02-08T21:42:20.952Z,128.37
2024-02-08T21:44:50.016Z,115.03
2024-02-08T21:47:18.653Z,112.90
2024-02-08T21:49:46.624Z,110.43
2024-02-08T21:52:16.313Z,106.73
2024-02-08T21:54:45.727Z,117.33
2024-02-08T21:57:16.338Z,106.40
2024-02-08T21:59:44.679Z,105.13
2024-02-08T22:02:12.719Z,103.50
2024-02-08T22:04:41.452Z,112.57
2024-02-08T22:07:09.956Z,104.47
2024-02-08T22:09:37.984Z,115.13
2024-02-08T22:12:07.613Z,111.37
2024-02-08T22:14:39.051Z,109.03
2024-02-08T22:17:10.745Z,106.73
2024-02-08T22:19:44.384Z,102.80
2024-02-08T22:22:13.759Z,135.97
2024-02-08T22:24:42.728Z,103.83
2024-02-08T22:27:12.203Z,94.70
2024-02-08T22:29:40.639Z,102.20
2024-02-08T22:32:08.888Z,107.33
2024-02-08T22:34:37.789Z,106.67
2024-02-08T22:37:06.217Z,94.20
2024-02-08T22:39:34.308Z,101.47
2024-02-08T22:42:02.568Z,91.43
2024-02-08T22:44:32.014Z,96.67
2024-02-08T22:47:05.161Z,100.60
2024-02-08T22:49:33.224Z,99.43
2024-02-08T22:52:01.642Z,87.03
2024-02-08T22:54:29.838Z,84.60
2024-02-08T22:56:58.166Z,88.43
2024-02-08T22:59:26.192Z,92.30
2024-02-08T23:01:56.029Z,95.80
2024-02-08T23:04:31.594Z,97.13
2024-02-08T23:07:01.934Z,83.90
2024-02-08T23:09:30.563Z,98.63
2024-02-08T23:11:59.607Z,86.27
2024-02-08T23:14:31.171Z,87.63
2024-02-08T23:17:00.978Z,84.00
2024-02-08T23:19:33.683Z,93.17
2024-02-08T23:22:05.805Z,85.27
2024-02-08T23:24:41.908Z,88.93
2024-02-08T23:27:10.253Z,81.97
2024-02-08T23:29:38.275Z,87.60
2024-02-08T23:32:09.998Z,77.70
2024-02-08T23:34:41.781Z,86.83
2024-02-08T23:37:12.437Z,82.17
2024-02-08T23:39:41.285Z,88.80
2024-02-08T23:42:09.461Z,82.83
2024-02-08T23:44:39.622Z,76.00
2024-02-08T23:47:09.271Z,84.13
2024-02-08T23:49:37.372Z,75.07
2024-02-08T23:52:05.827Z,74.47
2024-02-08T23:54:33.939Z,71.17
2024-02-08T23:57:02.860Z,76.53
2024-02-08T23:59:30.844Z,75.37
